sensor_id;sensor_type;location;lat;lon;timestamp;P1;durP1;ratioP1;P2;durP2;ratioP2
55827;SDS011;41758;51.992;5.890;2023-07-28T00:01:32;10.75;;;9.70;;
55827;SDS011;41758;51.992;5.890;2023-07-28T00:03:58;10.80;;;9.80;;
55827;SDS011;41758;51.992;5.890;2023-07-28T00:06:24;10.95;;;9.95;;
55827;SDS011;41758;51.992;5.890;2023-07-28T00:08:49;12.40;;;11.23;;
55827;SDS011;41758;51.992;5.890;2023-07-28T00:11:15;12.88;;;11.70;;
55827;SDS011;41758;51.992;5.890;2023-07-28T00:13:41;14.90;;;13.60;;
55827;SDS011;41758;51.992;5.890;2023-07-28T00:16:08;13.95;;;12.65;;
55827;SDS011;41758;51.992;5.890;2023-07-28T00:18:35;13.68;;;12.48;;
55827;SDS011;41758;51.992;5.890;2023-07-28T00:21:01;11.20;;;10.20;;
55827;SDS011;41758;51.992;5.890;2023-07-28T00:23:27;13.00;;;11.68;;
55827;SDS011;41758;51.992;5.890;2023-07-28T00:25:53;12.25;;;11.05;;
55827;SDS011;41758;51.992;5.890;2023-07-28T00:28:19;10.93;;;9.85;;
55827;SDS011;41758;51.992;5.890;2023-07-28T00:30:48;10.77;;;9.77;;
55827;SDS011;41758;51.992;5.890;2023-07-28T00:33:15;9.45;;;8.55;;
55827;SDS011;41758;51.992;5.890;2023-07-28T00:35:41;10.88;;;9.88;;
55827;SDS011;41758;51.992;5.890;2023-07-28T00:38:06;10.95;;;9.85;;
55827;SDS011;41758;51.992;5.890;2023-07-28T00:40:34;10.07;;;9.07;;
55827;SDS011;41758;51.992;5.890;2023-07-28T00:43:01;10.70;;;9.70;;
55827;SDS011;41758;51.992;5.890;2023-07-28T00:45:26;10.98;;;9.88;;
55827;SDS011;41758;51.992;5.890;2023-07-28T00:47:54;10.43;;;9.43;;
55827;SDS011;41758;51.992;5.890;2023-07-28T00:50:23;12.95;;;11.65;;
55827;SDS011;41758;51.992;5.890;2023-07-28T00:52:49;12.38;;;11.18;;
55827;SDS011;41758;51.992;5.890;2023-07-28T00:55:15;13.10;;;11.75;;
55827;SDS011;41758;51.992;5.890;2023-07-28T00:57:41;12.02;;;10.82;;
55827;SDS011;41758;51.992;5.890;2023-07-28T01:00:07;12.25;;;10.93;;
55827;SDS011;41758;51.992;5.890;2023-07-28T01:02:34;10.93;;;9.82;;
55827;SDS011;41758;51.992;5.890;2023-07-28T01:05:01;13.23;;;11.82;;
55827;SDS011;41758;51.992;5.890;2023-07-28T01:07:30;14.55;;;13.02;;
55827;SDS011;41758;51.992;5.890;2023-07-28T01:10:10;14.18;;;12.68;;
55827;SDS011;41758;51.992;5.890;2023-07-28T01:12:40;13.38;;;11.93;;
55827;SDS011;41758;51.992;5.890;2023-07-28T01:15:06;27.15;;;21.33;;
55827;SDS011;41758;51.992;5.890;2023-07-28T01:17:32;34.88;;;31.20;;
55827;SDS011;41758;51.992;5.890;2023-07-28T01:19:58;17.85;;;16.15;;
55827;SDS011;41758;51.992;5.890;2023-07-28T01:27:52;12.07;;;10.88;;
55827;SDS011;41758;51.992;5.890;2023-07-28T01:30:20;12.15;;;10.95;;
55827;SDS011;41758;51.992;5.890;2023-07-28T01:32:47;12.40;;;11.20;;
55827;SDS011;41758;51.992;5.890;2023-07-28T01:35:13;13.02;;;11.73;;
55827;SDS011;41758;51.992;5.890;2023-07-28T01:37:39;15.00;;;12.00;;
55827;SDS011;41758;51.992;5.890;2023-07-28T01:40:05;14.05;;;12.65;;
55827;SDS011;41758;51.992;5.890;2023-07-28T01:42:31;13.30;;;11.63;;
55827;SDS011;41758;51.992;5.890;2023-07-28T01:44:57;12.63;;;11.35;;
55827;SDS011;41758;51.992;5.890;2023-07-28T01:47:23;13.30;;;11.63;;
55827;SDS011;41758;51.992;5.890;2023-07-28T01:49:50;11.50;;;10.30;;
55827;SDS011;41758;51.992;5.890;2023-07-28T01:52:16;14.52;;;13.02;;
55827;SDS011;41758;51.992;5.890;2023-07-28T01:54:41;14.57;;;13.07;;
55827;SDS011;41758;51.992;5.890;2023-07-28T01:57:07;18.23;;;14.30;;
55827;SDS011;41758;51.992;5.890;2023-07-28T01:59:33;14.80;;;13.30;;
55827;SDS011;41758;51.992;5.890;2023-07-28T02:01:58;11.48;;;10.27;;
55827;SDS011;41758;51.992;5.890;2023-07-28T02:04:24;16.10;;;14.40;;
55827;SDS011;41758;51.992;5.890;2023-07-28T02:06:50;14.75;;;13.00;;
55827;SDS011;41758;51.992;5.890;2023-07-28T02:09:16;16.30;;;14.07;;
55827;SDS011;41758;51.992;5.890;2023-07-28T02:11:42;16.52;;;13.93;;
55827;SDS011;41758;51.992;5.890;2023-07-28T02:14:08;16.02;;;13.73;;
55827;SDS011;41758;51.992;5.890;2023-07-28T02:16:34;12.85;;;11.00;;
55827;SDS011;41758;51.992;5.890;2023-07-28T02:18:59;14.73;;;13.00;;
55827;SDS011;41758;51.992;5.890;2023-07-28T02:21:25;15.95;;;12.60;;
55827;SDS011;41758;51.992;5.890;2023-07-28T02:23:52;17.10;;;13.57;;
55827;SDS011;41758;51.992;5.890;2023-07-28T02:26:18;16.25;;;13.77;;
55827;SDS011;41758;51.992;5.890;2023-07-28T02:28:45;18.08;;;14.05;;
55827;SDS011;41758;51.992;5.890;2023-07-28T02:31:13;17.70;;;14.77;;
55827;SDS011;41758;51.992;5.890;2023-07-28T02:33:39;18.02;;;15.38;;
55827;SDS011;41758;51.992;5.890;2023-07-28T02:36:05;18.92;;;15.00;;
55827;SDS011;41758;51.992;5.890;2023-07-28T02:38:30;16.48;;;13.88;;
55827;SDS011;41758;51.992;5.890;2023-07-28T02:40:56;18.75;;;15.40;;
55827;SDS011;41758;51.992;5.890;2023-07-28T02:43:22;17.33;;;13.65;;
55827;SDS011;41758;51.992;5.890;2023-07-28T02:45:54;14.10;;;11.32;;
55827;SDS011;41758;51.992;5.890;2023-07-28T02:48:20;18.55;;;14.85;;
55827;SDS011;41758;51.992;5.890;2023-07-28T02:50:47;16.05;;;13.48;;
55827;SDS011;41758;51.992;5.890;2023-07-28T02:53:13;23.15;;;19.00;;
55827;SDS011;41758;51.992;5.890;2023-07-28T02:55:46;20.92;;;16.95;;
55827;SDS011;41758;51.992;5.890;2023-07-28T02:58:12;19.63;;;16.17;;
55827;SDS011;41758;51.992;5.890;2023-07-28T03:00:43;26.40;;;19.30;;
55827;SDS011;41758;51.992;5.890;2023-07-28T03:03:12;24.65;;;18.50;;
55827;SDS011;41758;51.992;5.890;2023-07-28T03:05:39;22.48;;;16.38;;
55827;SDS011;41758;51.992;5.890;2023-07-28T03:08:25;17.73;;;13.88;;
55827;SDS011;41758;51.992;5.890;2023-07-28T03:10:56;24.17;;;17.90;;
55827;SDS011;41758;51.992;5.890;2023-07-28T03:13:22;22.08;;;16.50;;
55827;SDS011;41758;51.992;5.890;2023-07-28T03:15:48;20.50;;;15.70;;
55827;SDS011;41758;51.992;5.890;2023-07-28T03:18:14;19.73;;;15.93;;
55827;SDS011;41758;51.992;5.890;2023-07-28T03:20:40;19.25;;;14.32;;
55827;SDS011;41758;51.992;5.890;2023-07-28T03:23:05;22.80;;;17.98;;
55827;SDS011;41758;51.992;5.890;2023-07-28T03:25:32;25.35;;;18.40;;
55827;SDS011;41758;51.992;5.890;2023-07-28T03:27:58;24.35;;;17.67;;
55827;SDS011;41758;51.992;5.890;2023-07-28T03:30:23;22.02;;;16.50;;
55827;SDS011;41758;51.992;5.890;2023-07-28T03:32:49;27.75;;;19.38;;
55827;SDS011;41758;51.992;5.890;2023-07-28T03:35:15;24.92;;;18.95;;
55827;SDS011;41758;51.992;5.890;2023-07-28T03:37:47;27.20;;;19.95;;
55827;SDS011;41758;51.992;5.890;2023-07-28T03:40:13;22.98;;;17.63;;
55827;SDS011;41758;51.992;5.890;2023-07-28T03:42:47;24.23;;;17.65;;
55827;SDS011;41758;51.992;5.890;2023-07-28T03:45:13;30.15;;;20.40;;
55827;SDS011;41758;51.992;5.890;2023-07-28T03:47:39;25.33;;;17.73;;
55827;SDS011;41758;51.992;5.890;2023-07-28T03:50:05;25.40;;;17.30;;
55827;SDS011;41758;51.992;5.890;2023-07-28T03:52:31;22.27;;;15.65;;
55827;SDS011;41758;51.992;5.890;2023-07-28T03:54:57;37.15;;;24.15;;
55827;SDS011;41758;51.992;5.890;2023-07-28T03:57:22;28.60;;;21.55;;
55827;SDS011;41758;51.992;5.890;2023-07-28T03:59:48;26.00;;;19.52;;
55827;SDS011;41758;51.992;5.890;2023-07-28T04:02:14;23.40;;;16.05;;
55827;SDS011;41758;51.992;5.890;2023-07-28T04:04:39;21.67;;;15.70;;
55827;SDS011;41758;51.992;5.890;2023-07-28T04:07:05;25.55;;;18.10;;
55827;SDS011;41758;51.992;5.890;2023-07-28T04:09:31;24.30;;;18.50;;
55827;SDS011;41758;51.992;5.890;2023-07-28T04:11:57;26.27;;;19.55;;
55827;SDS011;41758;51.992;5.890;2023-07-28T04:14:22;37.20;;;25.75;;
55827;SDS011;41758;51.992;5.890;2023-07-28T04:16:48;30.30;;;21.50;;
55827;SDS011;41758;51.992;5.890;2023-07-28T04:19:14;31.80;;;22.38;;
55827;SDS011;41758;51.992;5.890;2023-07-28T04:21:40;32.65;;;21.45;;
55827;SDS011;41758;51.992;5.890;2023-07-28T04:24:09;22.50;;;17.58;;
55827;SDS011;41758;51.992;5.890;2023-07-28T04:26:41;26.50;;;19.27;;
55827;SDS011;41758;51.992;5.890;2023-07-28T04:29:08;26.92;;;19.00;;
55827;SDS011;41758;51.992;5.890;2023-07-28T04:31:33;35.50;;;23.38;;
55827;SDS011;41758;51.992;5.890;2023-07-28T04:34:05;30.05;;;20.80;;
55827;SDS011;41758;51.992;5.890;2023-07-28T04:36:50;33.33;;;21.30;;
55827;SDS011;41758;51.992;5.890;2023-07-28T04:39:20;36.15;;;23.48;;
55827;SDS011;41758;51.992;5.890;2023-07-28T04:41:46;35.55;;;23.50;;
55827;SDS011;41758;51.992;5.890;2023-07-28T04:44:13;42.38;;;27.13;;
55827;SDS011;41758;51.992;5.890;2023-07-28T04:46:41;35.65;;;22.88;;
55827;SDS011;41758;51.992;5.890;2023-07-28T04:49:11;28.58;;;21.23;;
55827;SDS011;41758;51.992;5.890;2023-07-28T04:51:55;34.15;;;23.38;;
55827;SDS011;41758;51.992;5.890;2023-07-28T04:54:21;36.65;;;23.23;;
55827;SDS011;41758;51.992;5.890;2023-07-28T04:56:47;28.70;;;19.95;;
55827;SDS011;41758;51.992;5.890;2023-07-28T04:59:15;28.17;;;17.90;;
55827;SDS011;41758;51.992;5.890;2023-07-28T05:01:41;23.60;;;16.02;;
55827;SDS011;41758;51.992;5.890;2023-07-28T05:04:07;27.15;;;17.65;;
55827;SDS011;41758;51.992;5.890;2023-07-28T05:06:33;26.70;;;19.05;;
55827;SDS011;41758;51.992;5.890;2023-07-28T05:08:58;26.38;;;17.55;;
55827;SDS011;41758;51.992;5.890;2023-07-28T05:11:32;22.58;;;16.42;;
55827;SDS011;41758;51.992;5.890;2023-07-28T05:13:57;38.17;;;24.45;;
55827;SDS011;41758;51.992;5.890;2023-07-28T05:16:23;43.67;;;27.65;;
55827;SDS011;41758;51.992;5.890;2023-07-28T05:19:07;39.72;;;25.98;;
55827;SDS011;41758;51.992;5.890;2023-07-28T05:21:39;30.83;;;23.05;;
55827;SDS011;41758;51.992;5.890;2023-07-28T05:24:06;36.13;;;25.65;;
55827;SDS011;41758;51.992;5.890;2023-07-28T05:26:33;35.75;;;25.13;;
55827;SDS011;41758;51.992;5.890;2023-07-28T05:28:59;33.13;;;22.85;;
55827;SDS011;41758;51.992;5.890;2023-07-28T05:31:26;32.13;;;21.83;;
55827;SDS011;41758;51.992;5.890;2023-07-28T05:33:52;25.67;;;17.30;;
55827;SDS011;41758;51.992;5.890;2023-07-28T05:36:20;30.27;;;17.92;;
55827;SDS011;41758;51.992;5.890;2023-07-28T05:38:46;31.38;;;21.50;;
55827;SDS011;41758;51.992;5.890;2023-07-28T05:41:12;39.22;;;25.30;;
55827;SDS011;41758;51.992;5.890;2023-07-28T05:43:37;34.92;;;23.23;;
55827;SDS011;41758;51.992;5.890;2023-07-28T05:46:03;28.45;;;21.38;;
55827;SDS011;41758;51.992;5.890;2023-07-28T05:48:33;37.60;;;25.58;;
55827;SDS011;41758;51.992;5.890;2023-07-28T05:50:59;33.47;;;22.88;;
55827;SDS011;41758;51.992;5.890;2023-07-28T05:53:24;33.53;;;21.17;;
55827;SDS011;41758;51.992;5.890;2023-07-28T05:55:55;32.58;;;21.50;;
55827;SDS011;41758;51.992;5.890;2023-07-28T05:58:21;34.40;;;22.55;;
55827;SDS011;41758;51.992;5.890;2023-07-28T06:00:47;30.00;;;21.02;;
55827;SDS011;41758;51.992;5.890;2023-07-28T06:03:33;30.77;;;22.38;;
55827;SDS011;41758;51.992;5.890;2023-07-28T06:06:09;29.30;;;19.58;;
55827;SDS011;41758;51.992;5.890;2023-07-28T06:08:35;30.13;;;19.35;;
55827;SDS011;41758;51.992;5.890;2023-07-28T06:11:05;35.78;;;21.15;;
55827;SDS011;41758;51.992;5.890;2023-07-28T06:13:31;29.90;;;21.10;;
55827;SDS011;41758;51.992;5.890;2023-07-28T06:15:57;29.65;;;21.80;;
55827;SDS011;41758;51.992;5.890;2023-07-28T06:18:24;33.08;;;23.80;;
55827;SDS011;41758;51.992;5.890;2023-07-28T06:20:59;28.60;;;19.52;;
55827;SDS011;41758;51.992;5.890;2023-07-28T06:23:25;26.05;;;19.10;;
55827;SDS011;41758;51.992;5.890;2023-07-28T06:25:53;27.13;;;20.58;;
55827;SDS011;41758;51.992;5.890;2023-07-28T06:28:20;29.05;;;18.50;;
55827;SDS011;41758;51.992;5.890;2023-07-28T06:30:46;27.70;;;20.58;;
55827;SDS011;41758;51.992;5.890;2023-07-28T06:33:12;30.73;;;21.70;;
55827;SDS011;41758;51.992;5.890;2023-07-28T06:35:38;32.85;;;23.83;;
55827;SDS011;41758;51.992;5.890;2023-07-28T06:38:04;32.50;;;25.52;;
55827;SDS011;41758;51.992;5.890;2023-07-28T06:40:30;30.70;;;21.63;;
55827;SDS011;41758;51.992;5.890;2023-07-28T06:42:56;24.42;;;18.80;;
55827;SDS011;41758;51.992;5.890;2023-07-28T06:45:21;28.42;;;19.73;;
55827;SDS011;41758;51.992;5.890;2023-07-28T06:47:47;26.95;;;20.27;;
55827;SDS011;41758;51.992;5.890;2023-07-28T06:50:13;24.73;;;19.70;;
55827;SDS011;41758;51.992;5.890;2023-07-28T06:52:40;30.02;;;22.20;;
55827;SDS011;41758;51.992;5.890;2023-07-28T06:55:05;31.35;;;22.80;;
55827;SDS011;41758;51.992;5.890;2023-07-28T06:57:34;31.38;;;21.30;;
55827;SDS011;41758;51.992;5.890;2023-07-28T07:00:00;32.70;;;22.95;;
55827;SDS011;41758;51.992;5.890;2023-07-28T07:02:26;33.45;;;23.90;;
55827;SDS011;41758;51.992;5.890;2023-07-28T07:04:51;34.60;;;23.63;;
55827;SDS011;41758;51.992;5.890;2023-07-28T07:07:17;41.22;;;25.25;;
55827;SDS011;41758;51.992;5.890;2023-07-28T07:09:43;34.10;;;22.90;;
55827;SDS011;41758;51.992;5.890;2023-07-28T07:12:09;26.40;;;19.73;;
55827;SDS011;41758;51.992;5.890;2023-07-28T07:14:34;29.90;;;19.75;;
55827;SDS011;41758;51.992;5.890;2023-07-28T07:17:00;24.08;;;17.63;;
55827;SDS011;41758;51.992;5.890;2023-07-28T07:19:29;32.17;;;22.50;;
55827;SDS011;41758;51.992;5.890;2023-07-28T07:21:55;31.88;;;23.83;;
55827;SDS011;41758;51.992;5.890;2023-07-28T07:24:21;42.55;;;28.65;;
55827;SDS011;41758;51.992;5.890;2023-07-28T07:26:47;33.85;;;22.77;;
55827;SDS011;41758;51.992;5.890;2023-07-28T07:29:12;31.17;;;22.13;;
55827;SDS011;41758;51.992;5.890;2023-07-28T07:31:38;33.30;;;24.08;;
55827;SDS011;41758;51.992;5.890;2023-07-28T07:34:04;33.53;;;23.25;;
55827;SDS011;41758;51.992;5.890;2023-07-28T07:36:30;29.15;;;20.42;;
55827;SDS011;41758;51.992;5.890;2023-07-28T07:38:56;25.73;;;18.55;;
55827;SDS011;41758;51.992;5.890;2023-07-28T07:41:22;32.85;;;23.83;;
55827;SDS011;41758;51.992;5.890;2023-07-28T07:43:49;29.40;;;21.30;;
55827;SDS011;41758;51.992;5.890;2023-07-28T07:46:17;34.63;;;22.73;;
55827;SDS011;41758;51.992;5.890;2023-07-28T07:48:44;30.60;;;20.75;;
55827;SDS011;41758;51.992;5.890;2023-07-28T07:51:10;32.47;;;23.80;;
55827;SDS011;41758;51.992;5.890;2023-07-28T07:53:36;30.05;;;21.83;;
55827;SDS011;41758;51.992;5.890;2023-07-28T07:56:05;26.42;;;19.75;;
55827;SDS011;41758;51.992;5.890;2023-07-28T07:58:32;28.60;;;20.95;;
55827;SDS011;41758;51.992;5.890;2023-07-28T08:00:58;31.67;;;22.30;;
55827;SDS011;41758;51.992;5.890;2023-07-28T08:03:24;26.10;;;20.20;;
55827;SDS011;41758;51.992;5.890;2023-07-28T08:05:50;21.25;;;17.08;;
55827;SDS011;41758;51.992;5.890;2023-07-28T08:08:16;22.00;;;17.80;;
55827;SDS011;41758;51.992;5.890;2023-07-28T08:10:44;24.25;;;18.38;;
55827;SDS011;41758;51.992;5.890;2023-07-28T08:13:16;26.75;;;18.90;;
55827;SDS011;41758;51.992;5.890;2023-07-28T08:15:45;27.45;;;20.48;;
55827;SDS011;41758;51.992;5.890;2023-07-28T08:18:15;28.77;;;18.75;;
55827;SDS011;41758;51.992;5.890;2023-07-28T08:20:41;24.58;;;18.17;;
55827;SDS011;41758;51.992;5.890;2023-07-28T08:23:06;23.63;;;17.25;;
55827;SDS011;41758;51.992;5.890;2023-07-28T08:25:33;26.48;;;19.67;;
55827;SDS011;41758;51.992;5.890;2023-07-28T08:27:59;47.92;;;33.70;;
55827;SDS011;41758;51.992;5.890;2023-07-28T08:30:25;125.05;;;95.60;;
55827;SDS011;41758;51.992;5.890;2023-07-28T08:32:51;55.92;;;43.88;;
55827;SDS011;41758;51.992;5.890;2023-07-28T08:35:17;36.08;;;28.00;;
55827;SDS011;41758;51.992;5.890;2023-07-28T08:37:43;29.00;;;21.73;;
55827;SDS011;41758;51.992;5.890;2023-07-28T08:40:09;26.58;;;20.50;;
55827;SDS011;41758;51.992;5.890;2023-07-28T08:42:37;26.90;;;17.80;;
55827;SDS011;41758;51.992;5.890;2023-07-28T08:45:04;23.88;;;17.85;;
55827;SDS011;41758;51.992;5.890;2023-07-28T08:47:33;26.45;;;20.33;;
55827;SDS011;41758;51.992;5.890;2023-07-28T08:49:59;28.63;;;19.67;;
55827;SDS011;41758;51.992;5.890;2023-07-28T08:52:25;27.40;;;18.42;;
55827;SDS011;41758;51.992;5.890;2023-07-28T08:54:51;33.00;;;22.85;;
55827;SDS011;41758;51.992;5.890;2023-07-28T08:57:17;29.85;;;20.35;;
55827;SDS011;41758;51.992;5.890;2023-07-28T08:59:44;26.90;;;19.08;;
55827;SDS011;41758;51.992;5.890;2023-07-28T09:02:16;21.98;;;16.35;;
55827;SDS011;41758;51.992;5.890;2023-07-28T09:04:43;19.27;;;14.27;;
55827;SDS011;41758;51.992;5.890;2023-07-28T09:07:12;22.88;;;16.13;;
55827;SDS011;41758;51.992;5.890;2023-07-28T09:09:38;20.15;;;14.45;;
55827;SDS011;41758;51.992;5.890;2023-07-28T09:12:06;24.60;;;18.35;;
55827;SDS011;41758;51.992;5.890;2023-07-28T09:14:34;26.23;;;17.23;;
55827;SDS011;41758;51.992;5.890;2023-07-28T09:17:11;25.10;;;19.15;;
55827;SDS011;41758;51.992;5.890;2023-07-28T09:19:54;23.35;;;16.63;;
55827;SDS011;41758;51.992;5.890;2023-07-28T09:22:21;23.23;;;17.70;;
55827;SDS011;41758;51.992;5.890;2023-07-28T09:24:48;24.52;;;18.13;;
55827;SDS011;41758;51.992;5.890;2023-07-28T09:27:24;24.55;;;16.77;;
55827;SDS011;41758;51.992;5.890;2023-07-28T09:29:51;24.75;;;18.58;;
55827;SDS011;41758;51.992;5.890;2023-07-28T09:32:26;27.83;;;20.55;;
55827;SDS011;41758;51.992;5.890;2023-07-28T09:35:04;25.85;;;19.02;;
55827;SDS011;41758;51.992;5.890;2023-07-28T09:37:34;20.92;;;15.82;;
55827;SDS011;41758;51.992;5.890;2023-07-28T09:40:02;25.75;;;18.70;;
55827;SDS011;41758;51.992;5.890;2023-07-28T09:42:30;27.92;;;19.77;;
55827;SDS011;41758;51.992;5.890;2023-07-28T09:44:56;33.08;;;21.70;;
55827;SDS011;41758;51.992;5.890;2023-07-28T09:47:22;25.90;;;18.42;;
55827;SDS011;41758;51.992;5.890;2023-07-28T09:49:49;25.83;;;18.73;;
55827;SDS011;41758;51.992;5.890;2023-07-28T09:52:19;25.27;;;16.92;;
55827;SDS011;41758;51.992;5.890;2023-07-28T09:54:47;23.08;;;16.73;;
55827;SDS011;41758;51.992;5.890;2023-07-28T09:57:19;22.38;;;15.65;;
55827;SDS011;41758;51.992;5.890;2023-07-28T09:59:46;59.75;;;17.23;;
55827;SDS011;41758;51.992;5.890;2023-07-28T10:02:13;21.25;;;15.75;;
55827;SDS011;41758;51.992;5.890;2023-07-28T10:04:39;21.48;;;15.77;;
55827;SDS011;41758;51.992;5.890;2023-07-28T10:07:05;19.77;;;14.98;;
55827;SDS011;41758;51.992;5.890;2023-07-28T10:09:32;21.77;;;16.08;;
55827;SDS011;41758;51.992;5.890;2023-07-28T10:11:59;22.90;;;15.70;;
55827;SDS011;41758;51.992;5.890;2023-07-28T10:16:52;28.42;;;20.42;;
55827;SDS011;41758;51.992;5.890;2023-07-28T10:19:23;22.02;;;17.67;;
55827;SDS011;41758;51.992;5.890;2023-07-28T10:21:59;29.67;;;20.63;;
55827;SDS011;41758;51.992;5.890;2023-07-28T10:27:35;22.73;;;18.33;;
55827;SDS011;41758;51.992;5.890;2023-07-28T10:32:38;21.75;;;16.65;;
55827;SDS011;41758;51.992;5.890;2023-07-28T10:37:45;22.85;;;16.73;;
55827;SDS011;41758;51.992;5.890;2023-07-28T10:42:50;24.20;;;18.38;;
55827;SDS011;41758;51.992;5.890;2023-07-28T10:45:16;20.88;;;15.18;;
55827;SDS011;41758;51.992;5.890;2023-07-28T10:47:42;23.17;;;17.80;;
55827;SDS011;41758;51.992;5.890;2023-07-28T10:50:09;20.85;;;16.20;;
55827;SDS011;41758;51.992;5.890;2023-07-28T10:52:39;25.02;;;17.67;;
55827;SDS011;41758;51.992;5.890;2023-07-28T10:55:12;22.25;;;16.77;;
55827;SDS011;41758;51.992;5.890;2023-07-28T10:57:40;23.08;;;16.90;;
55827;SDS011;41758;51.992;5.890;2023-07-28T11:00:11;23.27;;;17.45;;
55827;SDS011;41758;51.992;5.890;2023-07-28T11:05:11;24.10;;;18.52;;
55827;SDS011;41758;51.992;5.890;2023-07-28T11:07:48;24.10;;;18.10;;
55827;SDS011;41758;51.992;5.890;2023-07-28T11:10:14;26.20;;;18.92;;
55827;SDS011;41758;51.992;5.890;2023-07-28T11:12:40;25.67;;;19.08;;
55827;SDS011;41758;51.992;5.890;2023-07-28T11:15:12;22.40;;;17.55;;
55827;SDS011;41758;51.992;5.890;2023-07-28T11:17:44;23.50;;;16.42;;
55827;SDS011;41758;51.992;5.890;2023-07-28T11:22:45;23.98;;;19.02;;
55827;SDS011;41758;51.992;5.890;2023-07-28T11:25:17;25.35;;;17.85;;
55827;SDS011;41758;51.992;5.890;2023-07-28T11:27:44;23.00;;;18.42;;
55827;SDS011;41758;51.992;5.890;2023-07-28T11:30:13;23.38;;;17.98;;
55827;SDS011;41758;51.992;5.890;2023-07-28T11:32:42;22.27;;;17.88;;
55827;SDS011;41758;51.992;5.890;2023-07-28T11:35:11;19.13;;;15.80;;
55827;SDS011;41758;51.992;5.890;2023-07-28T11:37:39;20.20;;;15.80;;
55827;SDS011;41758;51.992;5.890;2023-07-28T11:40:06;23.95;;;18.92;;
55827;SDS011;41758;51.992;5.890;2023-07-28T11:42:49;20.10;;;15.68;;
55827;SDS011;41758;51.992;5.890;2023-07-28T11:45:16;21.15;;;15.20;;
55827;SDS011;41758;51.992;5.890;2023-07-28T11:47:56;20.17;;;15.65;;
55827;SDS011;41758;51.992;5.890;2023-07-28T11:50:23;23.23;;;17.98;;
55827;SDS011;41758;51.992;5.890;2023-07-28T11:52:49;26.30;;;18.73;;
55827;SDS011;41758;51.992;5.890;2023-07-28T11:55:15;30.13;;;22.25;;
55827;SDS011;41758;51.992;5.890;2023-07-28T11:57:42;25.08;;;19.88;;
55827;SDS011;41758;51.992;5.890;2023-07-28T12:00:08;26.90;;;19.83;;
55827;SDS011;41758;51.992;5.890;2023-07-28T12:02:34;23.35;;;17.20;;
55827;SDS011;41758;51.992;5.890;2023-07-28T12:05:00;25.27;;;18.75;;
55827;SDS011;41758;51.992;5.890;2023-07-28T12:07:33;22.77;;;17.92;;
55827;SDS011;41758;51.992;5.890;2023-07-28T12:10:04;21.02;;;16.83;;
55827;SDS011;41758;51.992;5.890;2023-07-28T12:12:46;23.23;;;18.73;;
55827;SDS011;41758;51.992;5.890;2023-07-28T12:15:23;20.30;;;17.10;;
55827;SDS011;41758;51.992;5.890;2023-07-28T12:20:41;19.30;;;16.60;;
55827;SDS011;41758;51.992;5.890;2023-07-28T12:23:22;16.95;;;14.63;;
55827;SDS011;41758;51.992;5.890;2023-07-28T12:25:48;17.88;;;13.82;;
55827;SDS011;41758;51.992;5.890;2023-07-28T12:28:15;17.58;;;13.30;;
55827;SDS011;41758;51.992;5.890;2023-07-28T12:30:42;23.00;;;16.48;;
55827;SDS011;41758;51.992;5.890;2023-07-28T12:33:08;18.27;;;14.95;;
55827;SDS011;41758;51.992;5.890;2023-07-28T12:35:34;20.05;;;16.35;;
55827;SDS011;41758;51.992;5.890;2023-07-28T12:38:01;19.60;;;16.40;;
55827;SDS011;41758;51.992;5.890;2023-07-28T12:40:30;22.35;;;16.42;;
55827;SDS011;41758;51.992;5.890;2023-07-28T12:42:57;23.58;;;17.90;;
55827;SDS011;41758;51.992;5.890;2023-07-28T12:45:24;23.13;;;18.55;;
55827;SDS011;41758;51.992;5.890;2023-07-28T12:47:51;18.42;;;16.50;;
55827;SDS011;41758;51.992;5.890;2023-07-28T12:50:21;19.88;;;16.15;;
55827;SDS011;41758;51.992;5.890;2023-07-28T12:52:48;18.77;;;14.80;;
55827;SDS011;41758;51.992;5.890;2023-07-28T12:55:14;16.50;;;13.40;;
55827;SDS011;41758;51.992;5.890;2023-07-28T12:57:41;17.70;;;13.10;;
55827;SDS011;41758;51.992;5.890;2023-07-28T13:00:07;15.18;;;13.43;;
55827;SDS011;41758;51.992;5.890;2023-07-28T13:02:41;15.35;;;12.05;;
55827;SDS011;41758;51.992;5.890;2023-07-28T13:05:08;14.93;;;11.43;;
55827;SDS011;41758;51.992;5.890;2023-07-28T13:07:38;12.90;;;10.32;;
55827;SDS011;41758;51.992;5.890;2023-07-28T13:10:06;18.10;;;13.25;;
55827;SDS011;41758;51.992;5.890;2023-07-28T13:12:35;16.10;;;12.13;;
55827;SDS011;41758;51.992;5.890;2023-07-28T13:15:01;15.93;;;12.27;;
55827;SDS011;41758;51.992;5.890;2023-07-28T13:17:27;14.98;;;11.27;;
55827;SDS011;41758;51.992;5.890;2023-07-28T13:19:53;13.52;;;11.10;;
55827;SDS011;41758;51.992;5.890;2023-07-28T13:22:18;12.40;;;10.35;;
55827;SDS011;41758;51.992;5.890;2023-07-28T13:24:44;10.77;;;9.25;;
55827;SDS011;41758;51.992;5.890;2023-07-28T13:27:10;12.45;;;10.20;;
55827;SDS011;41758;51.992;5.890;2023-07-28T13:29:36;12.10;;;10.23;;
55827;SDS011;41758;51.992;5.890;2023-07-28T13:32:01;12.20;;;10.32;;
55827;SDS011;41758;51.992;5.890;2023-07-28T13:34:27;11.95;;;9.30;;
55827;SDS011;41758;51.992;5.890;2023-07-28T13:36:53;10.20;;;8.35;;
55827;SDS011;41758;51.992;5.890;2023-07-28T13:39:20;12.30;;;9.40;;
55827;SDS011;41758;51.992;5.890;2023-07-28T13:41:46;14.50;;;10.35;;
55827;SDS011;41758;51.992;5.890;2023-07-28T13:44:12;11.45;;;10.25;;
55827;SDS011;41758;51.992;5.890;2023-07-28T13:46:37;10.38;;;9.30;;
55827;SDS011;41758;51.992;5.890;2023-07-28T13:49:03;9.77;;;8.70;;
55827;SDS011;41758;51.992;5.890;2023-07-28T13:51:29;11.23;;;8.50;;
55827;SDS011;41758;51.992;5.890;2023-07-28T13:53:54;8.77;;;7.88;;
55827;SDS011;41758;51.992;5.890;2023-07-28T13:56:20;8.13;;;6.70;;
55827;SDS011;41758;51.992;5.890;2023-07-28T13:58:46;8.10;;;6.43;;
55827;SDS011;41758;51.992;5.890;2023-07-28T14:01:12;7.53;;;6.60;;
55827;SDS011;41758;51.992;5.890;2023-07-28T14:03:37;8.05;;;6.70;;
55827;SDS011;41758;51.992;5.890;2023-07-28T14:06:03;7.22;;;6.18;;
55827;SDS011;41758;51.992;5.890;2023-07-28T14:08:29;8.00;;;7.18;;
55827;SDS011;41758;51.992;5.890;2023-07-28T14:10:55;6.65;;;5.80;;
55827;SDS011;41758;51.992;5.890;2023-07-28T14:13:21;6.63;;;5.45;;
55827;SDS011;41758;51.992;5.890;2023-07-28T14:15:48;7.80;;;6.95;;
55827;SDS011;41758;51.992;5.890;2023-07-28T14:18:15;8.73;;;6.70;;
55827;SDS011;41758;51.992;5.890;2023-07-28T14:20:40;8.13;;;6.45;;
55827;SDS011;41758;51.992;5.890;2023-07-28T14:25:48;8.18;;;7.07;;
55827;SDS011;41758;51.992;5.890;2023-07-28T14:28:14;9.63;;;8.07;;
55827;SDS011;41758;51.992;5.890;2023-07-28T14:30:39;8.68;;;6.70;;
55827;SDS011;41758;51.992;5.890;2023-07-28T14:33:06;8.65;;;7.10;;
55827;SDS011;41758;51.992;5.890;2023-07-28T14:35:32;8.02;;;6.88;;
55827;SDS011;41758;51.992;5.890;2023-07-28T14:37:57;7.45;;;6.30;;
55827;SDS011;41758;51.992;5.890;2023-07-28T14:40:23;8.88;;;7.30;;
55827;SDS011;41758;51.992;5.890;2023-07-28T14:42:49;8.07;;;7.25;;
55827;SDS011;41758;51.992;5.890;2023-07-28T14:45:14;8.38;;;6.88;;
55827;SDS011;41758;51.992;5.890;2023-07-28T14:47:40;7.60;;;6.70;;
55827;SDS011;41758;51.992;5.890;2023-07-28T14:50:06;7.75;;;6.55;;
55827;SDS011;41758;51.992;5.890;2023-07-28T14:52:32;8.18;;;7.38;;
55827;SDS011;41758;51.992;5.890;2023-07-28T14:54:58;7.70;;;6.38;;